Time;durP1;ratioP1;P1;durP2;ratioP2;P2;SDS_P1;SDS_P2;PMS_P1;PMS_P2;Temp;Humidity;BMP_temperature;BMP_pressure;BME280_temperature;BME280_humidity;BME280_pressure;Samples;Min_cycle;Max_cycle;Signal;HPM_P1;HPM_P2
2022/07/04 00:02:00;;;;;;;;;;;;;;;17.31;56.96;101533.19;5039954;28;19929;-78
2022/07/04 00:04:25;;;;;;;;;;;;;;;17.41;56.36;101530.13;5036338;28;19928;-78
2022/07/04 00:06:50;;;;;;;;;;;;;;;17.34;57.05;101527.81;5041953;28;19920;-78
2022/07/04 00:09:16;;;;;;;;;;;;;;;17.34;57.51;101535.69;5042132;28;19973;-77
2022/07/04 00:11:41;;;;;;;;;;;;;;;17.33;57.24;101532.22;5041975;28;19975;-78
2022/07/04 00:14:06;;;;;;;;;;;;;;;17.30;57.74;101523.56;5028106;28;19921;-77
2022/07/04 00:16:32;;;;;;;;;;;;;;;17.27;56.96;101523.69;5039346;28;19929;-77
2022/07/04 00:18:57;;;;;;;;;;;;;;;17.33;56.09;101526.09;5037819;28;20388;-77
2022/07/04 00:21:23;;;;;;;;;;;;;;;17.26;57.24;101529.88;5038093;28;19932;-80
2022/07/04 00:23:48;;;;;;;;;;;;;;;17.23;58.03;101529.97;5043338;28;19925;-78
2022/07/04 00:26:14;;;;;;;;;;;;;;;17.21;57.50;101537.91;5041507;28;19929;-78
2022/07/04 00:28:39;;;;;;;;;;;;;;;17.13;58.58;101539.09;5041026;28;19928;-78
2022/07/04 00:31:04;;;;;;;;;;;;;;;17.14;57.94;101538.19;5038399;28;20558;-78
2022/07/04 00:33:30;;;;;;;;;;;;;;;17.11;58.21;101536.53;5041901;28;20379;-78
2022/07/04 00:35:55;;;;;;;;;;;;;;;17.15;56.94;101526.75;5026715;28;19935;-78
2022/07/04 00:38:20;;;;;;;;;;;;;;;17.16;56.80;101510.97;5040950;28;19956;-77
2022/07/04 00:40:45;;;;;;;;;;;;;;;17.16;57.29;101512.72;5043715;28;19928;-77
2022/07/04 00:43:11;;;;;;;;;;;;;;;17.12;56.84;101511.13;5042570;28;20012;-80
2022/07/04 00:45:36;;;;;;;;;;;;;;;17.11;57.21;101507.66;5027075;28;19966;-79
2022/07/04 00:48:02;;;;;;;;;;;;;;;17.01;58.56;101501.88;5036272;28;19928;-79
2022/07/04 00:50:27;;;;;;;;;;;;;;;16.99;57.96;101500.22;5053937;28;20346;-79
2022/07/04 00:52:53;;;;;;;;;;;;;;;16.91;58.93;101505.72;5038119;28;19928;-79
2022/07/04 00:55:18;;;;;;;;;;;;;;;16.92;58.23;101512.69;5048550;28;19936;-79
2022/07/04 00:57:44;;;;;;;;;;;;;;;16.92;58.38;101511.84;5045005;28;19925;-78
2022/07/04 01:00:09;;;;;;;;;;;;;;;16.93;58.66;101509.19;5049714;28;20011;-77
2022/07/04 01:02:34;;;;;;;;;;;;;;;16.92;58.59;101514.47;5045128;28;19924;-77
2022/07/04 01:05:00;;;;;;;;;;;;;;;16.87;58.62;101511.16;5051567;28;19967;-76
2022/07/04 01:07:26;;;;;;;;;;;;;;;16.86;58.60;101509.44;5042516;28;20024;-77
2022/07/04 01:09:52;;;;;;;;;;;;;;;16.93;58.26;101510.94;5033738;28;20039;-77
2022/07/04 01:12:30;;;;;;;;;;;;;;;16.99;57.76;101508.09;5046176;28;19929;-77
2022/07/04 01:14:55;;;;;;;;;;;;;;;16.89;58.08;101514.56;5045878;28;19943;-76
2022/07/04 01:17:21;;;;;;;;;;;;;;;16.91;57.13;101512.75;5045250;28;19925;-78
2022/07/04 01:19:46;;;;;;;;;;;;;;;16.84;58.27;101514.75;5050284;28;19967;-77
2022/07/04 01:22:12;;;;;;;;;;;;;;;16.76;58.10;101511.50;5044998;28;19921;-81
2022/07/04 01:24:37;;;;;;;;;;;;;;;16.70;58.87;101516.97;5042411;28;19925;-78
2022/07/04 01:27:03;;;;;;;;;;;;;;;16.84;58.67;101524.38;5038551;28;19940;-78
2022/07/04 01:29:28;;;;;;;;;;;;;;;16.84;58.45;101529.63;5034515;28;19928;-78
2022/07/04 01:31:53;;;;;;;;;;;;;;;16.81;58.46;101532.34;5038428;28;19925;-78
2022/07/04 01:34:19;;;;;;;;;;;;;;;16.76;58.48;101526.44;5042850;28;19952;-78
2022/07/04 01:36:45;;;;;;;;;;;;;;;16.71;58.44;101531.81;5043098;28;20302;-81
2022/07/04 01:39:10;;;;;;;;;;;;;;;16.65;57.98;101523.25;5026564;28;19925;-76
2022/07/04 01:41:35;;;;;;;;;;;;;;;16.64;57.85;101525.00;5048312;28;20006;-77
2022/07/04 01:44:01;;;;;;;;;;;;;;;16.57;58.49;101525.28;5040789;28;19968;-80
2022/07/04 01:46:26;;;;;;;;;;;;;;;16.56;58.02;101527.06;5044280;28;19928;-80
2022/07/04 01:48:51;;;;;;;;;;;;;;;16.68;57.66;101526.63;5045794;28;19960;-80
2022/07/04 01:51:17;;;;;;;;;;;;;;;16.75;57.49;101527.31;5028782;28;19928;-77
2022/07/04 01:53:42;;;;;;;;;;;;;;;16.68;57.85;101526.63;5043126;28;20476;-77
2022/07/04 01:56:07;;;;;;;;;;;;;;;16.64;58.75;101532.88;5041022;28;20289;-77
2022/07/04 01:58:33;;;;;;;;;;;;;;;16.67;58.09;101534.56;5045578;28;20414;-77
2022/07/04 02:03:42;;;;;;;;;;;;;;;16.56;58.30;101534.91;5042583;28;19967;-77
2022/07/04 02:06:07;;;;;;;;;;;;;;;16.53;58.47;101542.88;5038777;28;19924;-77
2022/07/04 02:11:17;;;;;;;;;;;;;;;16.60;57.91;101551.41;5042608;28;20466;-77
2022/07/04 02:13:42;;;;;;;;;;;;;;;16.46;58.78;101551.88;5047029;28;19925;-77
2022/07/04 02:16:07;;;;;;;;;;;;;;;16.49;58.63;101552.63;5045135;28;19924;-77
2022/07/04 02:18:33;;;;;;;;;;;;;;;16.39;58.91;101558.22;5044770;28;19924;-77
2022/07/04 02:20:58;;;;;;;;;;;;;;;16.38;58.16;101560.00;5044839;28;19921;-77
2022/07/04 02:23:24;;;;;;;;;;;;;;;16.43;58.52;101557.22;5042430;28;20121;-77
2022/07/04 02:25:49;;;;;;;;;;;;;;;16.39;58.46;101555.59;5044030;28;20513;-78
2022/07/04 02:28:14;;;;;;;;;;;;;;;16.35;58.62;101559.22;5030367;28;20424;-78
2022/07/04 02:30:39;;;;;;;;;;;;;;;16.32;59.05;101569.81;5047908;28;20019;-78
2022/07/04 02:33:05;;;;;;;;;;;;;;;16.32;59.06;101564.56;5044139;28;19921;-78
2022/07/04 02:35:30;;;;;;;;;;;;;;;16.33;58.96;101574.16;5037402;28;19963;-77
2022/07/04 02:37:55;;;;;;;;;;;;;;;16.39;58.77;101574.81;5023145;28;19967;-78
2022/07/04 02:40:21;;;;;;;;;;;;;;;16.32;58.93;101577.66;5039672;28;19925;-78
2022/07/04 02:42:46;;;;;;;;;;;;;;;16.28;58.96;101576.06;5025962;28;19928;-78
2022/07/04 02:45:12;;;;;;;;;;;;;;;16.26;59.40;101575.25;5040321;28;19925;-80
2022/07/04 02:47:37;;;;;;;;;;;;;;;16.25;58.99;101581.41;5025470;28;19928;-80
2022/07/04 02:50:03;;;;;;;;;;;;;;;16.18;59.14;101572.00;5040960;28;20372;-80
2022/07/04 02:52:29;;;;;;;;;;;;;;;16.11;59.42;101578.34;5044567;28;20712;-80
2022/07/04 02:54:54;;;;;;;;;;;;;;;16.17;59.87;101576.41;5046410;28;19956;-79
2022/07/04 02:57:19;;;;;;;;;;;;;;;16.09;60.16;101588.03;5043762;28;19922;-78
2022/07/04 02:59:45;;;;;;;;;;;;;;;16.06;60.08;101582.88;5043545;28;20236;-78
2022/07/04 03:02:10;;;;;;;;;;;;;;;16.01;60.42;101590.03;5042267;28;19976;-77
2022/07/04 03:04:36;;;;;;;;;;;;;;;15.99;60.88;101591.84;5036086;28;19925;-77
2022/07/04 03:07:01;;;;;;;;;;;;;;;15.97;60.88;101595.38;5044325;28;20459;-76
2022/07/04 03:09:29;;;;;;;;;;;;;;;15.93;60.57;101596.34;5042463;28;20403;-77
2022/07/04 03:11:54;;;;;;;;;;;;;;;15.96;60.51;101604.13;5022578;28;19925;-77
2022/07/04 03:14:20;;;;;;;;;;;;;;;15.96;60.05;101598.88;5038659;28;19974;-79
2022/07/04 03:16:46;;;;;;;;;;;;;;;16.00;60.28;101609.28;5048434;28;19964;-78
2022/07/04 03:19:11;;;;;;;;;;;;;;;16.05;59.72;101602.13;5044941;28;19931;-78
2022/07/04 03:21:36;;;;;;;;;;;;;;;16.08;59.77;101612.50;5047129;28;19924;-79
2022/07/04 03:24:02;;;;;;;;;;;;;;;16.04;60.74;101618.78;5044106;28;19925;-80
2022/07/04 03:26:31;;;;;;;;;;;;;;;16.06;60.22;101609.09;5039676;28;21006;-80
2022/07/04 03:28:57;;;;;;;;;;;;;;;16.00;60.64;101614.50;5042118;28;20454;-80
2022/07/04 03:31:23;;;;;;;;;;;;;;;15.90;60.07;101613.91;5033912;28;19979;-80
2022/07/04 03:33:49;;;;;;;;;;;;;;;15.96;59.90;101611.97;5039176;28;19925;-80
2022/07/04 03:36:15;;;;;;;;;;;;;;;15.88;60.88;101629.69;5022840;28;19939;-78
2022/07/04 03:38:40;;;;;;;;;;;;;;;15.81;61.27;101624.66;5045502;28;19935;-78
2022/07/04 03:41:06;;;;;;;;;;;;;;;15.85;61.35;101618.44;5046168;28;19927;-78
2022/07/04 03:43:31;;;;;;;;;;;;;;;15.62;62.68;101629.56;5045003;28;19925;-78
2022/07/04 03:45:56;;;;;;;;;;;;;;;15.84;61.12;101630.69;5045504;28;19924;-78
2022/07/04 03:48:22;;;;;;;;;;;;;;;15.77;61.23;101631.78;5022577;28;19921;-78
2022/07/04 03:50:47;;;;;;;;;;;;;;;15.79;61.70;101640.44;5038096;28;19925;-77
2022/07/04 03:53:12;;;;;;;;;;;;;;;15.79;60.95;101637.81;5038491;28;19928;-78
2022/07/04 03:55:38;;;;;;;;;;;;;;;15.79;60.97;101634.34;5036774;28;19929;-78
2022/07/04 03:58:04;;;;;;;;;;;;;;;15.80;60.50;101631.69;5041612;28;19920;-78
2022/07/04 04:00:30;;;;;;;;;;;;;;;15.83;61.09;101633.38;5043486;28;20381;-78
2022/07/04 04:02:55;;;;;;;;;;;;;;;15.78;60.83;101630.00;5043768;28;20338;-80
2022/07/04 04:05:26;;;;;;;;;;;;;;;15.80;61.05;101633.44;5037994;28;20294;-78
2022/07/04 04:07:55;;;;;;;;;;;;;;;15.73;62.07;101639.72;5047984;28;19931;-78
2022/07/04 04:10:21;;;;;;;;;;;;;;;15.70;61.33;101635.44;5044031;28;20757;-78
2022/07/04 04:12:46;;;;;;;;;;;;;;;15.88;60.93;101631.47;5020139;28;20024;-78
2022/07/04 04:15:11;;;;;;;;;;;;;;;15.84;61.58;101632.44;5038101;28;20468;-80
2022/07/04 04:17:37;;;;;;;;;;;;;;;15.92;60.48;101623.47;5040450;28;19928;-80
2022/07/04 04:20:02;;;;;;;;;;;;;;;15.79;61.38;101622.09;5044455;28;20360;-80
2022/07/04 04:22:30;;;;;;;;;;;;;;;15.89;60.30;101626.19;5042888;28;20031;-80
2022/07/04 04:24:56;;;;;;;;;;;;;;;15.89;59.08;101618.31;5048456;28;19923;-80
2022/07/04 04:27:22;;;;;;;;;;;;;;;15.87;60.04;101616.63;5044835;28;19956;-80
2022/07/04 04:29:47;;;;;;;;;;;;;;;16.04;59.30;101617.00;5027581;28;19964;-80
2022/07/04 04:32:12;;;;;;;;;;;;;;;15.90;60.50;101619.16;5040806;28;20035;-80
2022/07/04 04:34:38;;;;;;;;;;;;;;;15.90;59.80;101612.16;5048901;28;19921;-78
2022/07/04 04:37:03;;;;;;;;;;;;;;;15.93;59.69;101617.31;5050572;28;19925;-78
2022/07/04 04:39:29;;;;;;;;;;;;;;;15.97;60.37;101624.19;5047833;28;19929;-78
2022/07/04 04:41:54;;;;;;;;;;;;;;;15.96;60.36;101622.47;5041448;28;19925;-78
2022/07/04 04:44:19;;;;;;;;;;;;;;;16.07;59.52;101630.03;5047548;28;20523;-78
2022/07/04 04:46:45;;;;;;;;;;;;;;;16.13;59.98;101632.47;5033965;28;20640;-78
2022/07/04 04:49:11;;;;;;;;;;;;;;;16.07;59.99;101639.66;5042968;28;19921;-78
2022/07/04 04:51:36;;;;;;;;;;;;;;;16.08;59.44;101629.09;5041151;28;19943;-77
2022/07/04 04:54:01;;;;;;;;;;;;;;;16.05;59.87;101630.94;5039485;28;19924;-77
2022/07/04 04:56:27;;;;;;;;;;;;;;;16.07;59.79;101637.03;5044837;28;19928;-78
2022/07/04 04:58:52;;;;;;;;;;;;;;;16.13;60.66;101640.31;5032161;28;20403;-77
2022/07/04 05:01:17;;;;;;;;;;;;;;;16.18;59.41;101635.78;5041445;28;19979;-78
2022/07/04 05:03:43;;;;;;;;;;;;;;;16.11;58.82;101631.63;5041749;28;19925;-77
2022/07/04 05:06:08;;;;;;;;;;;;;;;16.18;59.05;101633.16;5037712;28;19931;-77
2022/07/04 05:08:33;;;;;;;;;;;;;;;16.10;59.59;101634.31;5039790;28;19920;-77
2022/07/04 05:10:59;;;;;;;;;;;;;;;16.10;58.97;101624.69;5041261;28;19972;-78
2022/07/04 05:13:24;;;;;;;;;;;;;;;16.20;59.24;101633.97;5039502;28;20000;-78
2022/07/04 05:15:49;;;;;;;;;;;;;;;16.16;60.45;101634.13;5041615;28;19951;-77
2022/07/04 05:18:15;;;;;;;;;;;;;;;16.13;59.37;101636.84;5039988;28;20032;-77
2022/07/04 05:20:41;;;;;;;;;;;;;;;16.13;59.15;101632.47;5045097;28;19929;-78
2022/07/04 05:23:06;;;;;;;;;;;;;;;16.19;59.57;101636.66;5029478;28;19971;-77
2022/07/04 05:25:34;;;;;;;;;;;;;;;16.11;60.12;101639.50;5032354;28;20298;-77
2022/07/04 05:28:00;;;;;;;;;;;;;;;16.15;60.24;101633.25;5037820;28;20375;-77
2022/07/04 05:30:25;;;;;;;;;;;;;;;16.20;59.51;101640.97;5028158;28;20795;-76
2022/07/04 05:32:51;;;;;;;;;;;;;;;16.15;60.06;101641.13;5049369;28;19931;-76
2022/07/04 05:35:16;;;;;;;;;;;;;;;16.21;60.38;101634.84;5043806;28;20403;-77
2022/07/04 05:37:43;;;;;;;;;;;;;;;16.22;59.88;101634.81;5047186;28;20296;-77
2022/07/04 05:40:09;;;;;;;;;;;;;;;16.16;60.76;101639.38;5046025;28;19921;-77
2022/07/04 05:42:34;;;;;;;;;;;;;;;16.17;60.42;101631.44;5048816;28;19924;-76
2022/07/04 05:44:59;;;;;;;;;;;;;;;16.24;58.69;101629.50;5048584;28;19932;-76
2022/07/04 05:47:25;;;;;;;;;;;;;;;16.33;59.37;101632.69;5029514;28;19921;-75
2022/07/04 05:49:51;;;;;;;;;;;;;;;16.30;60.14;101632.81;5045153;28;19921;-76
2022/07/04 05:52:16;;;;;;;;;;;;;;;16.26;60.45;101635.53;5048986;28;19916;-77
2022/07/04 05:54:42;;;;;;;;;;;;;;;16.36;59.13;101626.50;5048030;28;20441;-76
2022/07/04 05:57:07;;;;;;;;;;;;;;;16.32;59.26;101628.34;5040764;28;19929;-77
2022/07/04 05:59:32;;;;;;;;;;;;;;;16.36;58.99;101631.75;5042145;28;19967;-77
2022/07/04 06:01:58;;;;;;;;;;;;;;;16.46;59.32;101646.31;5043062;28;19931;-77
2022/07/04 06:04:23;;;;;;;;;;;;;;;16.36;58.26;101644.84;5045032;28;20443;-78
2022/07/04 06:06:48;;;;;;;;;;;;;;;16.41;58.69;101635.94;5044097;28;19978;-77
2022/07/04 06:09:14;;;;;;;;;;;;;;;16.45;57.74;101647.19;5048645;28;19922;-78
2022/07/04 06:11:39;;;;;;;;;;;;;;;16.57;58.23;101633.69;5042630;28;19975;-78
2022/07/04 06:14:04;;;;;;;;;;;;;;;16.54;58.80;101641.66;5036047;28;20300;-79
2022/07/04 06:16:30;;;;;;;;;;;;;;;16.49;58.55;101643.59;5033248;28;19928;-79
2022/07/04 06:18:55;;;;;;;;;;;;;;;16.51;58.82;101650.50;5040441;28;19923;-79
2022/07/04 06:21:21;;;;;;;;;;;;;;;16.50;59.72;101647.91;5044825;28;19924;-78
2022/07/04 06:23:46;;;;;;;;;;;;;;;16.45;60.06;101647.19;5026344;28;19929;-78
2022/07/04 06:26:11;;;;;;;;;;;;;;;16.52;59.54;101641.69;5048966;28;19920;-78
2022/07/04 06:28:37;;;;;;;;;;;;;;;16.57;59.15;101649.44;5047062;28;20433;-78
2022/07/04 06:31:02;;;;;;;;;;;;;;;16.61;57.79;101650.19;5041979;28;19932;-78
2022/07/04 06:33:28;;;;;;;;;;;;;;;16.52;58.10;101652.19;5043565;28;19978;-81
2022/07/04 06:35:56;;;;;;;;;;;;;;;16.63;58.03;101651.00;5042419;28;19932;-81
2022/07/04 06:38:23;;;;;;;;;;;;;;;16.59;58.55;101652.84;5043371;28;19925;-82
2022/07/04 06:40:50;;;;;;;;;;;;;;;16.68;57.02;101652.56;5037766;28;19932;-78
2022/07/04 06:43:15;;;;;;;;;;;;;;;16.64;56.75;101655.34;5023801;28;19925;-79
2022/07/04 06:45:41;;;;;;;;;;;;;;;16.37;56.93;101654.44;5039826;28;19986;-82
2022/07/04 06:48:06;;;;;;;;;;;;;;;16.73;55.86;101653.28;5046132;28;19956;-81
2022/07/04 06:50:32;;;;;;;;;;;;;;;16.69;56.20;101653.47;5023246;28;19974;-82
2022/07/04 06:53:01;;;;;;;;;;;;;;;16.68;57.32;101651.69;5038072;28;20012;-81
2022/07/04 06:55:36;;;;;;;;;;;;;;;16.72;56.41;101646.34;5046105;28;20499;-81
2022/07/04 06:58:02;;;;;;;;;;;;;;;16.67;55.41;101640.34;5040382;28;19923;-81
2022/07/04 07:00:30;;;;;;;;;;;;;;;16.73;54.04;101639.34;5047961;28;20354;-78
2022/07/04 07:02:56;;;;;;;;;;;;;;;16.74;55.42;101636.66;5026694;28;19921;-78
2022/07/04 07:05:21;;;;;;;;;;;;;;;16.75;55.79;101635.75;5045944;28;20058;-77
2022/07/04 07:07:46;;;;;;;;;;;;;;;16.78;55.37;101621.69;5008051;28;19921;-77
2022/07/04 07:10:12;;;;;;;;;;;;;;;16.82;52.74;101613.63;5041664;28;19917;-78
2022/07/04 07:12:37;;;;;;;;;;;;;;;16.72;51.31;101611.38;5044062;28;20423;-77
2022/07/04 07:15:03;;;;;;;;;;;;;;;16.86;50.47;101604.75;5027771;28;20023;-77
2022/07/04 07:17:28;;;;;;;;;;;;;;;16.78;51.22;101613.81;5045353;28;19937;-77
2022/07/04 07:19:54;;;;;;;;;;;;;;;16.62;52.86;101609.94;5039787;28;19975;-76
2022/07/04 07:22:20;;;;;;;;;;;;;;;16.73;54.94;101616.56;5027757;28;19925;-78
2022/07/04 07:24:45;;;;;;;;;;;;;;;16.83;53.77;101604.88;5050700;28;19917;-79
2022/07/04 07:27:10;;;;;;;;;;;;;;;16.86;52.43;101604.75;5048954;28;19923;-79
2022/07/04 07:29:36;;;;;;;;;;;;;;;16.93;51.54;101608.03;5025982;28;19921;-79
2022/07/04 07:32:01;;;;;;;;;;;;;;;16.93;51.38;101592.31;5028386;28;19921;-79
2022/07/04 07:34:27;;;;;;;;;;;;;;;16.95;51.12;101607.09;5043214;28;19920;-79
2022/07/04 07:36:53;;;;;;;;;;;;;;;16.99;51.04;101599.97;5051128;28;19986;-79
2022/07/04 07:39:18;;;;;;;;;;;;;;;16.89;51.82;101602.03;5030443;28;19924;-79
2022/07/04 07:41:44;;;;;;;;;;;;;;;16.99;51.65;101600.84;5043991;28;20336;-79
2022/07/04 07:44:09;;;;;;;;;;;;;;;17.02;52.30;101594.59;5041999;28;19925;-79
2022/07/04 07:46:34;;;;;;;;;;;;;;;17.07;50.20;101595.31;5043603;28;19928;-78
2022/07/04 07:49:00;;;;;;;;;;;;;;;17.02;49.54;101594.59;5045420;28;20007;-79
2022/07/04 07:51:25;;;;;;;;;;;;;;;17.08;49.93;101598.78;5041519;28;19921;-78
2022/07/04 07:53:50;;;;;;;;;;;;;;;17.06;50.92;101601.44;5042444;28;19929;-78
2022/07/04 07:56:16;;;;;;;;;;;;;;;17.05;49.77;101605.00;5043640;28;20035;-82
2022/07/04 07:58:41;;;;;;;;;;;;;;;17.04;49.25;101601.53;5038888;28;20396;-78
2022/07/04 08:01:06;;;;;;;;;;;;;;;17.08;51.59;101606.66;5035768;28;19921;-78
2022/07/04 08:06:16;;;;;;;;;;;;;;;17.11;50.20;101612.66;5040396;28;20008;-77
2022/07/04 08:08:41;;;;;;;;;;;;;;;17.20;48.51;101611.50;5042342;28;19928;-78
2022/07/04 08:11:07;;;;;;;;;;;;;;;17.14;50.45;101617.81;5040762;28;19928;-81
2022/07/04 08:13:33;;;;;;;;;;;;;;;17.14;48.37;101619.59;5046282;28;19921;-81
2022/07/04 08:15:58;;;;;;;;;;;;;;;17.15;49.46;101614.25;5044581;28;19929;-80
2022/07/04 08:18:23;;;;;;;;;;;;;;;17.22;48.40;101622.78;5039966;28;20004;-81
2022/07/04 08:20:49;;;;;;;;;;;;;;;17.27;46.44;101620.84;5045048;28;20335;-81
2022/07/04 08:23:15;;;;;;;;;;;;;;;17.19;48.00;101617.63;5042899;28;20405;-81
2022/07/04 08:25:40;;;;;;;;;;;;;;;17.16;46.74;101610.72;5045030;28;20284;-82
2022/07/04 08:28:06;;;;;;;;;;;;;;;17.22;44.93;101601.78;5040827;28;19948;-81
2022/07/04 08:30:31;;;;;;;;;;;;;;;17.30;45.37;101610.22;5050390;28;20548;-81
2022/07/04 08:32:56;;;;;;;;;;;;;;;17.34;43.68;101611.84;5028483;28;19927;-81
2022/07/04 08:35:22;;;;;;;;;;;;;;;17.33;44.60;101610.13;5020383;28;19932;-81
2022/07/04 08:37:52;;;;;;;;;;;;;;;17.29;45.20;101611.16;5041225;28;20418;-82
2022/07/04 08:40:18;;;;;;;;;;;;;;;17.40;45.97;101611.63;5039193;28;20003;-79
2022/07/04 08:42:43;;;;;;;;;;;;;;;17.41;46.54;101616.81;5044755;28;20423;-78
2022/07/04 08:45:10;;;;;;;;;;;;;;;17.38;46.23;101619.56;5049473;28;19927;-78
2022/07/04 08:47:38;;;;;;;;;;;;;;;17.39;46.34;101616.03;5044530;28;19928;-78
2022/07/04 08:50:11;;;;;;;;;;;;;;;17.44;46.55;101621.97;5047545;28;19955;-78
2022/07/04 08:52:38;;;;;;;;;;;;;;;17.43;46.96;101627.28;5044524;28;19921;-78
2022/07/04 09:00:32;;;;;;;;;;;;;;;17.44;45.62;101616.72;5031819;28;20444;-77
2022/07/04 09:02:58;;;;;;;;;;;;;;;17.45;46.39;101615.81;5038701;28;20024;-77
2022/07/04 09:05:24;;;;;;;;;;;;;;;17.52;44.68;101622.56;5030724;28;19924;-78
2022/07/04 09:07:49;;;;;;;;;;;;;;;17.49;44.23;101619.19;5042126;28;19925;-78
2022/07/04 09:10:16;;;;;;;;;;;;;;;17.51;43.85;101617.34;5046737;28;20388;-78
2022/07/04 09:12:41;;;;;;;;;;;;;;;17.51;44.51;101612.97;5048274;28;19963;-77
2022/07/04 09:15:07;;;;;;;;;;;;;;;17.53;44.82;101618.19;5050844;28;19944;-78
2022/07/04 09:17:33;;;;;;;;;;;;;;;17.54;45.26;101612.84;5033632;28;19935;-77
2022/07/04 09:20:15;;;;;;;;;;;;;;;17.58;44.91;101618.84;5042474;28;19965;-77
2022/07/04 09:22:40;;;;;;;;;;;;;;;17.58;44.78;101603.94;5050849;28;20473;-78
2022/07/04 09:25:06;;;;;;;;;;;;;;;17.57;45.74;101611.88;5048314;28;19932;-78
2022/07/04 09:27:35;;;;;;;;;;;;;;;17.61;45.54;101600.38;5046205;28;19924;-77
2022/07/04 09:30:01;;;;;;;;;;;;;;;17.59;46.48;101592.53;5046996;28;20401;-77
2022/07/04 09:32:46;;;;;;;;;;;;;;;17.62;46.23;101591.56;5040957;28;19928;-77
2022/07/04 09:35:19;;;;;;;;;;;;;;;17.66;45.17;101587.94;5005696;28;19925;-77
2022/07/04 09:37:49;;;;;;;;;;;;;;;17.70;45.12;101588.69;5040314;28;19924;-77
2022/07/04 09:40:25;;;;;;;;;;;;;;;17.73;44.08;101589.41;5047472;28;19925;-77
2022/07/04 09:42:50;;;;;;;;;;;;;;;17.77;43.48;101593.63;5045151;28;20341;-77
2022/07/04 09:45:16;;;;;;;;;;;;;;;17.73;43.65;101594.69;5047301;28;20011;-77
2022/07/04 09:47:44;;;;;;;;;;;;;;;17.73;44.32;101594.69;5034341;28;19921;-77
2022/07/04 09:50:10;;;;;;;;;;;;;;;17.72;44.33;101587.69;5029579;28;19928;-77
2022/07/04 09:52:50;;;;;;;;;;;;;;;17.72;44.11;101590.31;5046713;28;19928;-77
2022/07/04 09:55:24;;;;;;;;;;;;;;;17.75;43.44;101587.59;5041986;28;19927;-81
2022/07/04 09:57:50;;;;;;;;;;;;;;;17.72;44.81;101595.59;5040544;28;19925;-77
2022/07/04 10:00:16;;;;;;;;;;;;;;;17.73;45.59;101586.78;5044364;28;19925;-77
2022/07/04 10:02:42;;;;;;;;;;;;;;;17.76;46.28;101591.06;5042417;28;19925;-77
2022/07/04 10:05:07;;;;;;;;;;;;;;;17.78;44.87;101576.09;5050103;28;19921;-77
2022/07/04 10:07:37;;;;;;;;;;;;;;;17.75;44.51;101569.19;5041575;28;20391;-79
2022/07/04 10:10:24;;;;;;;;;;;;;;;17.81;44.29;101566.31;5040999;28;19932;-79
2022/07/04 10:12:50;;;;;;;;;;;;;;;17.87;43.66;101573.97;5042738;28;19927;-82
2022/07/04 10:15:16;;;;;;;;;;;;;;;17.85;43.17;101567.94;5046562;28;19975;-82
2022/07/04 10:17:41;;;;;;;;;;;;;;;17.91;42.80;101566.84;5027265;28;19932;-82
2022/07/04 10:20:08;;;;;;;;;;;;;;;17.89;42.53;101553.75;5039024;28;19943;-82
2022/07/04 10:22:34;;;;;;;;;;;;;;;17.89;42.63;101564.25;5041242;28;19921;-82
2022/07/04 10:24:59;;;;;;;;;;;;;;;17.87;43.13;101570.50;5048816;28;19924;-81
2022/07/04 10:27:24;;;;;;;;;;;;;;;17.85;42.94;101567.94;5044776;28;19921;-79
2022/07/04 10:29:50;;;;;;;;;;;;;;;17.85;44.76;101562.69;5041273;28;20370;-79
2022/07/04 10:32:16;;;;;;;;;;;;;;;17.88;44.03;101556.44;5043890;28;19931;-79
2022/07/04 10:34:41;;;;;;;;;;;;;;;17.88;44.22;101559.94;5048140;28;19925;-79
2022/07/04 10:37:07;;;;;;;;;;;;;;;17.91;43.36;101551.06;5024657;28;19975;-79
2022/07/04 10:39:32;;;;;;;;;;;;;;;17.94;42.03;101535.16;5045435;28;20288;-78
2022/07/04 10:41:59;;;;;;;;;;;;;;;18.01;43.83;101548.00;5045349;28;20086;-78
2022/07/04 10:44:26;;;;;;;;;;;;;;;18.08;41.05;101551.25;5044756;28;20027;-78
2022/07/04 10:46:53;;;;;;;;;;;;;;;18.07;41.41;101547.75;5042360;28;20307;-78
2022/07/04 10:49:19;;;;;;;;;;;;;;;18.02;42.45;101544.47;5046372;28;19921;-78
2022/07/04 10:51:46;;;;;;;;;;;;;;;17.97;43.21;101535.91;5025714;28;19964;-78
2022/07/04 10:54:28;;;;;;;;;;;;;;;18.03;42.62;101533.03;5041654;28;19929;-79
2022/07/04 10:57:16;;;;;;;;;;;;;;;18.06;42.46;101530.28;5040091;28;19925;-78
2022/07/04 10:59:42;;;;;;;;;;;;;;;18.16;41.34;101530.75;5044267;28;19947;-78
2022/07/04 11:02:08;;;;;;;;;;;;;;;18.07;42.15;101518.84;5048751;28;19920;-78
2022/07/04 11:04:49;;;;;;;;;;;;;;;18.15;42.24;101531.69;5046919;28;20726;-78
2022/07/04 11:07:18;;;;;;;;;;;;;;;18.13;42.91;101526.47;5047176;28;19944;-79
2022/07/04 11:09:44;;;;;;;;;;;;;;;18.17;43.53;101529.84;5044009;28;19986;-78
2022/07/04 11:12:14;;;;;;;;;;;;;;;18.03;44.51;101530.41;5042629;28;21828;-78
2022/07/04 11:14:46;;;;;;;;;;;;;;;18.15;43.04;101527.25;5045975;28;19935;-78
2022/07/04 11:17:12;;;;;;;;;;;;;;;18.23;43.02;101526.97;5038596;28;19925;-78
2022/07/04 11:19:37;;;;;;;;;;;;;;;18.18;42.82;101529.78;5044499;28;19921;-78
2022/07/04 11:22:04;;;;;;;;;;;;;;;18.30;43.73;101528.44;5045977;28;19925;-78
2022/07/04 11:24:30;;;;;;;;;;;;;;;18.32;44.36;101528.38;5029484;28;19978;-78
2022/07/04 11:26:55;;;;;;;;;;;;;;;18.48;43.84;101532.13;5046811;28;19921;-78
2022/07/04 11:29:21;;;;;;;;;;;;;;;18.37;43.79;101534.28;5046975;28;19932;-78
2022/07/04 11:31:47;;;;;;;;;;;;;;;18.29;45.14;101529.34;5025040;28;20280;-78
2022/07/04 11:34:13;;;;;;;;;;;;;;;18.45;42.81;101527.81;5041687;28;19921;-78
2022/07/04 11:36:40;;;;;;;;;;;;;;;18.29;44.74;101526.72;5044457;28;20587;-78
2022/07/04 11:39:06;;;;;;;;;;;;;;;18.45;43.88;101527.81;5048904;28;19936;-78
2022/07/04 11:45:17;;;;;;;;;;;;;;;18.64;43.29;101522.66;5049541;28;19931;-78
2022/07/04 11:47:18;;;;;;;;;;;;;;;18.60;42.30;101521.91;5025666;28;19932;-78
2022/07/04 11:49:48;;;;;;;;;;;;;;;18.68;42.76;101516.34;5042375;28;19927;-79
2022/07/04 11:52:14;;;;;;;;;;;;;;;18.77;42.50;101515.09;5025377;28;19928;-79
2022/07/04 11:54:43;;;;;;;;;;;;;;;18.64;41.72;101510.34;5044026;28;19925;-79
2022/07/04 11:57:13;;;;;;;;;;;;;;;18.47;43.49;101514.63;5043233;28;20810;-79
2022/07/04 11:59:38;;;;;;;;;;;;;;;18.40;44.90;101515.75;5043954;28;20494;-78
2022/07/04 12:02:14;;;;;;;;;;;;;;;18.53;43.23;101499.44;5027928;28;20019;-82
2022/07/04 12:04:41;;;;;;;;;;;;;;;18.59;43.51;101506.22;5045107;28;19920;-78
2022/07/04 12:07:13;;;;;;;;;;;;;;;18.56;43.81;101507.19;5026778;28;19935;-79
2022/07/04 12:09:39;;;;;;;;;;;;;;;18.54;43.33;101503.75;5048331;28;19916;-79
2022/07/04 12:12:04;;;;;;;;;;;;;;;18.54;43.23;101502.94;5021335;28;19929;-79
2022/07/04 12:14:30;;;;;;;;;;;;;;;18.58;42.73;101497.47;5038305;28;20525;-82
2022/07/04 12:17:15;;;;;;;;;;;;;;;18.64;42.37;101501.59;5011646;28;19969;-82
2022/07/04 12:19:56;;;;;;;;;;;;;;;18.78;41.73;101509.75;5036506;28;20645;-82
2022/07/04 12:22:25;;;;;;;;;;;;;;;18.59;42.93;101501.81;5036535;28;19924;-81
2022/07/04 12:24:51;;;;;;;;;;;;;;;18.62;43.45;101499.03;5037516;28;19932;-81
2022/07/04 12:27:17;;;;;;;;;;;;;;;18.70;44.13;101503.97;5040348;28;20277;-81
2022/07/04 12:29:46;;;;;;;;;;;;;;;18.83;43.55;101502.53;5040455;28;20016;-81
2022/07/04 12:32:14;;;;;;;;;;;;;;;18.77;43.24;101502.78;5040379;28;19924;-81
2022/07/04 12:34:39;;;;;;;;;;;;;;;18.76;43.31;101495.81;5023777;28;19944;-81
2022/07/04 12:37:07;;;;;;;;;;;;;;;18.84;43.81;101498.94;5040053;28;19929;-81
2022/07/04 12:39:39;;;;;;;;;;;;;;;18.77;43.31;101497.53;5044987;28;20406;-81
2022/07/04 12:42:06;;;;;;;;;;;;;;;18.81;43.71;101495.63;5029478;28;20375;-81
2022/07/04 12:44:31;;;;;;;;;;;;;;;18.94;43.73;101486.25;5044046;28;20434;-81
2022/07/04 12:46:56;;;;;;;;;;;;;;;18.72;47.96;101494.22;5032052;28;19920;-82
2022/07/04 12:49:22;;;;;;;;;;;;;;;18.67;45.77;101490.94;5032762;28;19921;-81